スキルの伝承

LUXURY FLIGHT

03-6423-7371

羽田本店:東京都大田区羽田5-11-1
営業時間:10:00~20:00
定休日:毎週 月曜日
セントレア店:愛知県常滑市セントレア1-1
営業時間:10:00~20:00 年中無休

lv

スキルの伝承

STAFF BLOG

2019/05/13 スキルの伝承

おっはようございますーーーーーーー

 

ざっすざっすざっすーーーー

 

本日の羽田周辺は…

 

RJTT 130030Z 02006KT 350V060 9999 FEW020 BKN035 16/10 Q1020 NOSIG

 

img_1352

 

ちょっと雲が多めかもしれません

 

 

 

 

さーてさてさて、

 

本日は747をこよなく愛するE様。

 

昨年の出会い以降、定期的に747を練習し続け、

2時間ぶっ通しは当たり前、

時には4時間のフライト(全部マニュアルで)をこなす、気合いと根性が入りまくったお方です。

 

出会った頃は、レッドブルエアレースですか?

という位の、オーバーコントロール&アクロバット&アドベンチャーなフライトでしたが、

今となっては500人のお客様を意識したスペシャル安定なフライトを作り上げております。笑

 

たまに我々スタッフに突然の横風を入れられながらも、冷静かつ自然に風をいなしております

 

そして迎えた今週末、E様はパイロットになる夢を持つ甥っ子を、弟子として迎え入れ(笑)

スキルの伝承作業に入りました。

 

弊社のパイロットOBスタッフと共に、

 

「あーでもない、こーでもない、いやココはこーだろう。そう、それ!!」

なーんて本当に楽しそう

 

img_1350

 

 

飛行機好きが3人集まると、

もう収拾がつかないほどにコックピットが盛り上がってしまいます。笑

 

そんな中でもE様ご本人が苦労した点、気をつけている事をピンポイントでキッチリ伝えておりました。

 

こうやって太古の昔から日本の伝統文化も引き継がれていったのでしょう。

…いや、違うか。

 

 

引き続き、スキルアップを目指し飛びまくって参りましょう

 

 

当ーーーーー然

我々スタッフも全力サポートさせていただきます

 

 

引き続きのご来店、いつも楽しみに致しております。

 

いつも本当にありがとうございます。

 

「感謝」

 

 

 

 

 

 

 

 

 

TOP